sensor_id;sensor_type;location;lat;lon;timestamp;P1;durP1;ratioP1;P2;durP2;ratioP2
3433;SDS011;1730;41.932;25.548;2023-08-01T00:00:39;13.20;;;12.20;;
3433;SDS011;1730;41.932;25.548;2023-08-01T00:03:05;12.97;;;11.87;;
3433;SDS011;1730;41.932;25.548;2023-08-01T00:05:30;12.87;;;11.87;;
3433;SDS011;1730;41.932;25.548;2023-08-01T00:07:56;12.80;;;11.83;;
3433;SDS011;1730;41.932;25.548;2023-08-01T00:10:21;13.53;;;12.53;;
3433;SDS011;1730;41.932;25.548;2023-08-01T00:12:47;12.97;;;12.00;;
3433;SDS011;1730;41.932;25.548;2023-08-01T00:15:12;14.40;;;13.20;;
3433;SDS011;1730;41.932;25.548;2023-08-01T00:17:38;12.43;;;11.23;;
3433;SDS011;1730;41.932;25.548;2023-08-01T00:20:04;14.00;;;12.80;;
3433;SDS011;1730;41.932;25.548;2023-08-01T00:22:30;12.97;;;12.07;;
3433;SDS011;1730;41.932;25.548;2023-08-01T00:24:55;13.27;;;12.17;;
3433;SDS011;1730;41.932;25.548;2023-08-01T00:27:21;14.73;;;13.37;;
3433;SDS011;1730;41.932;25.548;2023-08-01T00:29:46;13.00;;;12.10;;
3433;SDS011;1730;41.932;25.548;2023-08-01T00:32:12;15.20;;;13.50;;
3433;SDS011;1730;41.932;25.548;2023-08-01T00:34:37;13.43;;;12.27;;
3433;SDS011;1730;41.932;25.548;2023-08-01T00:37:03;14.20;;;12.87;;
3433;SDS011;1730;41.932;25.548;2023-08-01T00:39:29;13.63;;;12.53;;
3433;SDS011;1730;41.932;25.548;2023-08-01T00:41:55;13.93;;;12.73;;
3433;SDS011;1730;41.932;25.548;2023-08-01T00:44:21;12.97;;;11.87;;
3433;SDS011;1730;41.932;25.548;2023-08-01T00:46:47;13.33;;;12.27;;
3433;SDS011;1730;41.932;25.548;2023-08-01T00:49:13;14.10;;;12.90;;
3433;SDS011;1730;41.932;25.548;2023-08-01T00:51:39;13.67;;;12.43;;
3433;SDS011;1730;41.932;25.548;2023-08-01T00:54:05;15.40;;;13.73;;
3433;SDS011;1730;41.932;25.548;2023-08-01T00:56:31;13.53;;;12.63;;
3433;SDS011;1730;41.932;25.548;2023-08-01T00:58:57;14.33;;;13.10;;
3433;SDS011;1730;41.932;25.548;2023-08-01T01:01:23;14.13;;;13.03;;
3433;SDS011;1730;41.932;25.548;2023-08-01T01:03:48;15.47;;;14.17;;
3433;SDS011;1730;41.932;25.548;2023-08-01T01:06:25;13.83;;;12.80;;
3433;SDS011;1730;41.932;25.548;2023-08-01T01:09:01;14.57;;;13.30;;
3433;SDS011;1730;41.932;25.548;2023-08-01T01:11:30;13.77;;;12.77;;
3433;SDS011;1730;41.932;25.548;2023-08-01T01:13:55;14.70;;;13.53;;
3433;SDS011;1730;41.932;25.548;2023-08-01T01:16:21;15.80;;;14.60;;
3433;SDS011;1730;41.932;25.548;2023-08-01T01:18:47;15.00;;;13.90;;
3433;SDS011;1730;41.932;25.548;2023-08-01T01:21:13;14.40;;;13.20;;
3433;SDS011;1730;41.932;25.548;2023-08-01T01:23:38;13.97;;;12.90;;
3433;SDS011;1730;41.932;25.548;2023-08-01T01:26:07;14.10;;;12.93;;
3433;SDS011;1730;41.932;25.548;2023-08-01T01:28:34;16.03;;;14.83;;
3433;SDS011;1730;41.932;25.548;2023-08-01T01:31:01;16.83;;;15.30;;
3433;SDS011;1730;41.932;25.548;2023-08-01T01:33:28;14.77;;;13.43;;
3433;SDS011;1730;41.932;25.548;2023-08-01T01:35:54;15.40;;;14.07;;
3433;SDS011;1730;41.932;25.548;2023-08-01T01:38:19;13.70;;;12.70;;
3433;SDS011;1730;41.932;25.548;2023-08-01T01:40:45;15.10;;;13.90;;
3433;SDS011;1730;41.932;25.548;2023-08-01T01:43:10;14.10;;;13.10;;
3433;SDS011;1730;41.932;25.548;2023-08-01T01:45:36;14.40;;;13.30;;
3433;SDS011;1730;41.932;25.548;2023-08-01T01:48:01;14.77;;;13.57;;
3433;SDS011;1730;41.932;25.548;2023-08-01T01:50:28;15.17;;;13.77;;
3433;SDS011;1730;41.932;25.548;2023-08-01T01:52:53;15.17;;;13.77;;
3433;SDS011;1730;41.932;25.548;2023-08-01T01:55:19;17.23;;;15.53;;
3433;SDS011;1730;41.932;25.548;2023-08-01T01:57:44;17.23;;;15.63;;
3433;SDS011;1730;41.932;25.548;2023-08-01T02:00:10;14.93;;;13.53;;
3433;SDS011;1730;41.932;25.548;2023-08-01T02:02:36;17.50;;;15.63;;
3433;SDS011;1730;41.932;25.548;2023-08-01T02:05:02;15.93;;;14.73;;
3433;SDS011;1730;41.932;25.548;2023-08-01T02:07:31;16.30;;;14.73;;
3433;SDS011;1730;41.932;25.548;2023-08-01T02:09:59;16.03;;;14.73;;
3433;SDS011;1730;41.932;25.548;2023-08-01T02:12:25;18.07;;;15.60;;
3433;SDS011;1730;41.932;25.548;2023-08-01T02:14:50;15.67;;;14.27;;
3433;SDS011;1730;41.932;25.548;2023-08-01T02:17:16;18.10;;;16.33;;
3433;SDS011;1730;41.932;25.548;2023-08-01T02:19:41;15.67;;;14.40;;
3433;SDS011;1730;41.932;25.548;2023-08-01T02:22:07;16.33;;;14.90;;
3433;SDS011;1730;41.932;25.548;2023-08-01T02:24:32;15.63;;;14.13;;
3433;SDS011;1730;41.932;25.548;2023-08-01T02:26:58;17.57;;;15.67;;
3433;SDS011;1730;41.932;25.548;2023-08-01T02:29:24;17.27;;;15.50;;
3433;SDS011;1730;41.932;25.548;2023-08-01T02:31:50;17.00;;;15.60;;
3433;SDS011;1730;41.932;25.548;2023-08-01T02:34:18;16.03;;;14.80;;
3433;SDS011;1730;41.932;25.548;2023-08-01T02:36:44;17.10;;;15.50;;
3433;SDS011;1730;41.932;25.548;2023-08-01T02:39:09;17.13;;;15.60;;
3433;SDS011;1730;41.932;25.548;2023-08-01T02:41:35;18.20;;;16.70;;
3433;SDS011;1730;41.932;25.548;2023-08-01T02:44:02;18.00;;;16.50;;
3433;SDS011;1730;41.932;25.548;2023-08-01T02:46:28;17.80;;;16.20;;
3433;SDS011;1730;41.932;25.548;2023-08-01T02:48:54;16.67;;;15.17;;
3433;SDS011;1730;41.932;25.548;2023-08-01T02:51:21;17.60;;;16.00;;
3433;SDS011;1730;41.932;25.548;2023-08-01T02:53:46;17.47;;;16.07;;
3433;SDS011;1730;41.932;25.548;2023-08-01T02:56:15;17.73;;;16.10;;
3433;SDS011;1730;41.932;25.548;2023-08-01T02:58:41;17.80;;;16.40;;
3433;SDS011;1730;41.932;25.548;2023-08-01T03:01:08;16.47;;;15.07;;
3433;SDS011;1730;41.932;25.548;2023-08-01T03:03:35;17.13;;;15.53;;
3433;SDS011;1730;41.932;25.548;2023-08-01T03:06:02;17.77;;;16.27;;
3433;SDS011;1730;41.932;25.548;2023-08-01T03:08:28;17.67;;;15.90;;
3433;SDS011;1730;41.932;25.548;2023-08-01T03:10:54;19.20;;;17.20;;
3433;SDS011;1730;41.932;25.548;2023-08-01T03:13:20;17.83;;;16.33;;
3433;SDS011;1730;41.932;25.548;2023-08-01T03:15:45;19.30;;;17.43;;
3433;SDS011;1730;41.932;25.548;2023-08-01T03:18:11;20.47;;;18.47;;
3433;SDS011;1730;41.932;25.548;2023-08-01T03:20:37;21.00;;;19.10;;
3433;SDS011;1730;41.932;25.548;2023-08-01T03:23:02;20.10;;;18.30;;
3433;SDS011;1730;41.932;25.548;2023-08-01T03:25:28;25.10;;;19.50;;
3433;SDS011;1730;41.932;25.548;2023-08-01T03:27:56;21.70;;;17.97;;
3433;SDS011;1730;41.932;25.548;2023-08-01T03:30:22;20.73;;;18.70;;
3433;SDS011;1730;41.932;25.548;2023-08-01T03:32:48;19.70;;;17.90;;
3433;SDS011;1730;41.932;25.548;2023-08-01T03:35:13;19.83;;;18.07;;
3433;SDS011;1730;41.932;25.548;2023-08-01T03:37:39;20.47;;;18.50;;
3433;SDS011;1730;41.932;25.548;2023-08-01T03:40:05;20.07;;;18.37;;
3433;SDS011;1730;41.932;25.548;2023-08-01T03:42:34;20.73;;;18.73;;
3433;SDS011;1730;41.932;25.548;2023-08-01T03:45:00;20.00;;;18.13;;
3433;SDS011;1730;41.932;25.548;2023-08-01T03:47:25;17.93;;;16.13;;
3433;SDS011;1730;41.932;25.548;2023-08-01T03:49:51;18.57;;;16.87;;
3433;SDS011;1730;41.932;25.548;2023-08-01T03:52:16;17.77;;;16.10;;
3433;SDS011;1730;41.932;25.548;2023-08-01T03:54:42;16.77;;;15.30;;
3433;SDS011;1730;41.932;25.548;2023-08-01T03:57:07;18.30;;;16.63;;
3433;SDS011;1730;41.932;25.548;2023-08-01T03:59:33;17.77;;;16.00;;
3433;SDS011;1730;41.932;25.548;2023-08-01T04:01:58;19.80;;;15.30;;
3433;SDS011;1730;41.932;25.548;2023-08-01T04:04:25;16.47;;;15.07;;
3433;SDS011;1730;41.932;25.548;2023-08-01T04:06:50;17.23;;;15.83;;
3433;SDS011;1730;41.932;25.548;2023-08-01T04:09:16;17.43;;;16.03;;
3433;SDS011;1730;41.932;25.548;2023-08-01T04:11:42;17.20;;;15.80;;
3433;SDS011;1730;41.932;25.548;2023-08-01T04:14:08;17.13;;;15.67;;
3433;SDS011;1730;41.932;25.548;2023-08-01T04:16:34;17.50;;;15.90;;
3433;SDS011;1730;41.932;25.548;2023-08-01T04:18:59;17.87;;;16.13;;
3433;SDS011;1730;41.932;25.548;2023-08-01T04:21:25;17.70;;;16.03;;
3433;SDS011;1730;41.932;25.548;2023-08-01T04:23:50;18.83;;;16.90;;
3433;SDS011;1730;41.932;25.548;2023-08-01T04:26:16;18.83;;;17.13;;
3433;SDS011;1730;41.932;25.548;2023-08-01T04:28:41;18.93;;;17.03;;
3433;SDS011;1730;41.932;25.548;2023-08-01T04:31:07;17.87;;;16.37;;
3433;SDS011;1730;41.932;25.548;2023-08-01T04:33:34;20.73;;;18.93;;
3433;SDS011;1730;41.932;25.548;2023-08-01T04:35:59;22.13;;;20.00;;
3433;SDS011;1730;41.932;25.548;2023-08-01T04:38:25;22.80;;;20.70;;
3433;SDS011;1730;41.932;25.548;2023-08-01T04:40:50;24.73;;;22.30;;
3433;SDS011;1730;41.932;25.548;2023-08-01T04:43:16;21.27;;;19.23;;
3433;SDS011;1730;41.932;25.548;2023-08-01T04:45:41;20.33;;;18.23;;
3433;SDS011;1730;41.932;25.548;2023-08-01T04:48:07;20.23;;;18.07;;
3433;SDS011;1730;41.932;25.548;2023-08-01T04:50:32;19.87;;;17.93;;
3433;SDS011;1730;41.932;25.548;2023-08-01T04:52:59;19.13;;;16.03;;
3433;SDS011;1730;41.932;25.548;2023-08-01T04:55:25;18.53;;;16.70;;
3433;SDS011;1730;41.932;25.548;2023-08-01T04:57:50;16.80;;;15.40;;
3433;SDS011;1730;41.932;25.548;2023-08-01T05:00:16;17.40;;;15.77;;
3433;SDS011;1730;41.932;25.548;2023-08-01T05:02:42;18.40;;;16.73;;
3433;SDS011;1730;41.932;25.548;2023-08-01T05:05:08;17.20;;;15.70;;
3433;SDS011;1730;41.932;25.548;2023-08-01T05:07:33;17.27;;;15.60;;
3433;SDS011;1730;41.932;25.548;2023-08-01T05:09:59;17.20;;;15.80;;
3433;SDS011;1730;41.932;25.548;2023-08-01T05:12:25;17.00;;;15.30;;
3433;SDS011;1730;41.932;25.548;2023-08-01T05:14:50;16.63;;;15.10;;
3433;SDS011;1730;41.932;25.548;2023-08-01T05:17:16;15.87;;;14.13;;
3433;SDS011;1730;41.932;25.548;2023-08-01T05:19:41;16.27;;;14.87;;
3433;SDS011;1730;41.932;25.548;2023-08-01T05:22:06;16.47;;;14.93;;
3433;SDS011;1730;41.932;25.548;2023-08-01T05:24:32;16.40;;;14.80;;
3433;SDS011;1730;41.932;25.548;2023-08-01T05:26:58;15.30;;;13.60;;
3433;SDS011;1730;41.932;25.548;2023-08-01T05:29:25;15.90;;;14.60;;
3433;SDS011;1730;41.932;25.548;2023-08-01T05:31:50;20.17;;;17.83;;
3433;SDS011;1730;41.932;25.548;2023-08-01T05:34:16;15.87;;;14.47;;
3433;SDS011;1730;41.932;25.548;2023-08-01T05:36:43;15.90;;;14.37;;
3433;SDS011;1730;41.932;25.548;2023-08-01T05:39:08;14.50;;;13.40;;
3433;SDS011;1730;41.932;25.548;2023-08-01T05:41:34;13.40;;;12.23;;
3433;SDS011;1730;41.932;25.548;2023-08-01T05:44:01;7.27;;;6.83;;
3433;SDS011;1730;41.932;25.548;2023-08-01T05:46:27;13.50;;;12.40;;
3433;SDS011;1730;41.932;25.548;2023-08-01T05:48:53;14.63;;;13.13;;
3433;SDS011;1730;41.932;25.548;2023-08-01T05:51:18;14.00;;;12.70;;
3433;SDS011;1730;41.932;25.548;2023-08-01T05:53:43;13.67;;;12.17;;
3433;SDS011;1730;41.932;25.548;2023-08-01T05:56:09;14.40;;;13.10;;
3433;SDS011;1730;41.932;25.548;2023-08-01T05:58:35;13.77;;;12.73;;
3433;SDS011;1730;41.932;25.548;2023-08-01T06:01:00;12.63;;;11.53;;
3433;SDS011;1730;41.932;25.548;2023-08-01T06:03:26;11.10;;;10.17;;
3433;SDS011;1730;41.932;25.548;2023-08-01T06:05:51;12.97;;;11.27;;
3433;SDS011;1730;41.932;25.548;2023-08-01T06:08:17;10.03;;;9.20;;
3433;SDS011;1730;41.932;25.548;2023-08-01T06:10:43;10.70;;;9.60;;
3433;SDS011;1730;41.932;25.548;2023-08-01T06:13:09;10.57;;;9.47;;
3433;SDS011;1730;41.932;25.548;2023-08-01T06:15:35;8.73;;;8.03;;
3433;SDS011;1730;41.932;25.548;2023-08-01T06:18:01;12.77;;;7.53;;
3433;SDS011;1730;41.932;25.548;2023-08-01T06:20:27;7.60;;;7.20;;
3433;SDS011;1730;41.932;25.548;2023-08-01T06:22:52;6.83;;;6.33;;
3433;SDS011;1730;41.932;25.548;2023-08-01T06:25:18;7.60;;;6.97;;
3433;SDS011;1730;41.932;25.548;2023-08-01T06:27:43;7.00;;;6.50;;
3433;SDS011;1730;41.932;25.548;2023-08-01T06:30:09;7.43;;;7.03;;
3433;SDS011;1730;41.932;25.548;2023-08-01T06:32:35;6.70;;;6.30;;
3433;SDS011;1730;41.932;25.548;2023-08-01T06:35:00;6.33;;;6.03;;
3433;SDS011;1730;41.932;25.548;2023-08-01T06:37:26;7.23;;;6.73;;
3433;SDS011;1730;41.932;25.548;2023-08-01T06:39:51;6.67;;;6.00;;
3433;SDS011;1730;41.932;25.548;2023-08-01T06:42:17;7.13;;;6.50;;
3433;SDS011;1730;41.932;25.548;2023-08-01T06:44:42;9.70;;;7.27;;
3433;SDS011;1730;41.932;25.548;2023-08-01T06:47:08;6.93;;;6.20;;
3433;SDS011;1730;41.932;25.548;2023-08-01T06:49:33;7.13;;;6.57;;
3433;SDS011;1730;41.932;25.548;2023-08-01T06:51:59;7.13;;;6.33;;
3433;SDS011;1730;41.932;25.548;2023-08-01T06:54:24;5.90;;;5.30;;
3433;SDS011;1730;41.932;25.548;2023-08-01T06:56:50;7.57;;;6.97;;
3433;SDS011;1730;41.932;25.548;2023-08-01T06:59:16;6.63;;;6.00;;
3433;SDS011;1730;41.932;25.548;2023-08-01T07:01:42;6.80;;;6.40;;
3433;SDS011;1730;41.932;25.548;2023-08-01T07:04:09;6.93;;;5.80;;
3433;SDS011;1730;41.932;25.548;2023-08-01T07:06:35;6.97;;;6.20;;
3433;SDS011;1730;41.932;25.548;2023-08-01T07:09:01;6.87;;;6.57;;
3433;SDS011;1730;41.932;25.548;2023-08-01T07:11:26;8.90;;;7.53;;
3433;SDS011;1730;41.932;25.548;2023-08-01T07:13:52;10.30;;;9.40;;
3433;SDS011;1730;41.932;25.548;2023-08-01T07:16:17;6.60;;;6.20;;
3433;SDS011;1730;41.932;25.548;2023-08-01T07:18:43;6.70;;;6.30;;
3433;SDS011;1730;41.932;25.548;2023-08-01T07:21:08;6.73;;;6.33;;
3433;SDS011;1730;41.932;25.548;2023-08-01T07:23:34;6.83;;;6.20;;
3433;SDS011;1730;41.932;25.548;2023-08-01T07:26:00;6.87;;;6.27;;
3433;SDS011;1730;41.932;25.548;2023-08-01T07:28:26;6.67;;;6.20;;
3433;SDS011;1730;41.932;25.548;2023-08-01T07:30:58;7.30;;;7.00;;
3433;SDS011;1730;41.932;25.548;2023-08-01T07:33:30;7.03;;;6.40;;
3433;SDS011;1730;41.932;25.548;2023-08-01T07:35:56;7.53;;;6.70;;
3433;SDS011;1730;41.932;25.548;2023-08-01T07:38:22;8.43;;;6.30;;
3433;SDS011;1730;41.932;25.548;2023-08-01T07:40:47;7.10;;;6.57;;
3433;SDS011;1730;41.932;25.548;2023-08-01T07:43:14;8.17;;;6.67;;
3433;SDS011;1730;41.932;25.548;2023-08-01T07:45:40;7.30;;;6.60;;
3433;SDS011;1730;41.932;25.548;2023-08-01T07:48:07;6.43;;;5.90;;
3433;SDS011;1730;41.932;25.548;2023-08-01T07:50:33;6.53;;;5.97;;
3433;SDS011;1730;41.932;25.548;2023-08-01T07:52:58;6.90;;;6.50;;
3433;SDS011;1730;41.932;25.548;2023-08-01T07:55:24;11.80;;;7.30;;
3433;SDS011;1730;41.932;25.548;2023-08-01T07:57:49;8.73;;;6.60;;
3433;SDS011;1730;41.932;25.548;2023-08-01T08:00:15;9.20;;;6.23;;
3433;SDS011;1730;41.932;25.548;2023-08-01T08:02:41;10.13;;;7.17;;
3433;SDS011;1730;41.932;25.548;2023-08-01T08:05:09;7.50;;;6.90;;
3433;SDS011;1730;41.932;25.548;2023-08-01T08:07:38;6.20;;;5.80;;
3433;SDS011;1730;41.932;25.548;2023-08-01T08:10:04;7.60;;;5.83;;
3433;SDS011;1730;41.932;25.548;2023-08-01T08:12:31;6.77;;;6.27;;
3433;SDS011;1730;41.932;25.548;2023-08-01T08:14:57;6.20;;;5.60;;
3433;SDS011;1730;41.932;25.548;2023-08-01T08:17:23;6.47;;;5.87;;
3433;SDS011;1730;41.932;25.548;2023-08-01T08:19:48;6.37;;;5.70;;
3433;SDS011;1730;41.932;25.548;2023-08-01T08:22:14;6.03;;;5.63;;
3433;SDS011;1730;41.932;25.548;2023-08-01T08:24:39;6.87;;;6.07;;
3433;SDS011;1730;41.932;25.548;2023-08-01T08:27:05;5.83;;;5.43;;
3433;SDS011;1730;41.932;25.548;2023-08-01T08:29:31;6.07;;;5.57;;
3433;SDS011;1730;41.932;25.548;2023-08-01T08:31:57;10.23;;;7.00;;
3433;SDS011;1730;41.932;25.548;2023-08-01T08:34:23;5.53;;;5.23;;
3433;SDS011;1730;41.932;25.548;2023-08-01T08:36:49;5.97;;;5.53;;
3433;SDS011;1730;41.932;25.548;2023-08-01T08:39:17;11.63;;;5.63;;
3433;SDS011;1730;41.932;25.548;2023-08-01T08:41:45;5.73;;;5.30;;
3433;SDS011;1730;41.932;25.548;2023-08-01T08:44:15;6.33;;;5.93;;
3433;SDS011;1730;41.932;25.548;2023-08-01T08:46:42;6.30;;;6.00;;
3433;SDS011;1730;41.932;25.548;2023-08-01T08:49:09;6.17;;;5.57;;
3433;SDS011;1730;41.932;25.548;2023-08-01T08:51:35;6.47;;;5.87;;
3433;SDS011;1730;41.932;25.548;2023-08-01T08:54:06;7.73;;;5.40;;
3433;SDS011;1730;41.932;25.548;2023-08-01T08:56:33;6.17;;;5.77;;
3433;SDS011;1730;41.932;25.548;2023-08-01T08:58:59;6.70;;;6.17;;
3433;SDS011;1730;41.932;25.548;2023-08-01T09:01:25;6.50;;;5.90;;
3433;SDS011;1730;41.932;25.548;2023-08-01T09:03:51;5.00;;;4.70;;
3433;SDS011;1730;41.932;25.548;2023-08-01T09:06:24;5.10;;;4.83;;
3433;SDS011;1730;41.932;25.548;2023-08-01T09:09:14;5.73;;;5.23;;
3433;SDS011;1730;41.932;25.548;2023-08-01T09:11:41;6.23;;;5.80;;
3433;SDS011;1730;41.932;25.548;2023-08-01T09:14:09;5.17;;;4.77;;
3433;SDS011;1730;41.932;25.548;2023-08-01T09:16:35;5.60;;;5.20;;
3433;SDS011;1730;41.932;25.548;2023-08-01T09:19:01;5.70;;;5.27;;
3433;SDS011;1730;41.932;25.548;2023-08-01T09:21:27;5.70;;;5.23;;
3433;SDS011;1730;41.932;25.548;2023-08-01T09:23:58;6.27;;;5.80;;
3433;SDS011;1730;41.932;25.548;2023-08-01T09:26:32;6.97;;;5.13;;
3433;SDS011;1730;41.932;25.548;2023-08-01T09:28:57;5.10;;;4.80;;
3433;SDS011;1730;41.932;25.548;2023-08-01T09:31:27;7.03;;;5.60;;
3433;SDS011;1730;41.932;25.548;2023-08-01T09:33:54;5.33;;;5.03;;
3433;SDS011;1730;41.932;25.548;2023-08-01T09:38:58;4.70;;;4.40;;
3433;SDS011;1730;41.932;25.548;2023-08-01T09:41:25;5.30;;;4.80;;
3433;SDS011;1730;41.932;25.548;2023-08-01T09:43:50;5.10;;;4.60;;
3433;SDS011;1730;41.932;25.548;2023-08-01T09:46:16;4.80;;;4.50;;
3433;SDS011;1730;41.932;25.548;2023-08-01T09:48:42;5.90;;;5.00;;
3433;SDS011;1730;41.932;25.548;2023-08-01T09:51:09;5.17;;;4.67;;
3433;SDS011;1730;41.932;25.548;2023-08-01T09:53:35;5.90;;;5.60;;
3433;SDS011;1730;41.932;25.548;2023-08-01T09:56:12;6.43;;;6.00;;
3433;SDS011;1730;41.932;25.548;2023-08-01T09:58:41;6.40;;;5.80;;
3433;SDS011;1730;41.932;25.548;2023-08-01T10:01:08;5.40;;;4.87;;
3433;SDS011;1730;41.932;25.548;2023-08-01T10:03:34;5.90;;;5.50;;
3433;SDS011;1730;41.932;25.548;2023-08-01T10:06:00;10.83;;;8.53;;
3433;SDS011;1730;41.932;25.548;2023-08-01T10:08:26;5.03;;;4.63;;
3433;SDS011;1730;41.932;25.548;2023-08-01T10:10:54;4.70;;;4.40;;
3433;SDS011;1730;41.932;25.548;2023-08-01T10:13:23;5.60;;;5.30;;
3433;SDS011;1730;41.932;25.548;2023-08-01T10:15:50;6.37;;;4.77;;
3433;SDS011;1730;41.932;25.548;2023-08-01T10:18:16;4.57;;;4.37;;
3433;SDS011;1730;41.932;25.548;2023-08-01T10:20:42;5.47;;;4.37;;
3433;SDS011;1730;41.932;25.548;2023-08-01T10:23:09;4.87;;;4.63;;
3433;SDS011;1730;41.932;25.548;2023-08-01T10:25:36;5.87;;;5.47;;
3433;SDS011;1730;41.932;25.548;2023-08-01T10:28:04;5.37;;;5.07;;
3433;SDS011;1730;41.932;25.548;2023-08-01T10:30:32;5.20;;;4.90;;
3433;SDS011;1730;41.932;25.548;2023-08-01T10:33:01;4.30;;;4.10;;
3433;SDS011;1730;41.932;25.548;2023-08-01T10:38:03;6.00;;;5.50;;
3433;SDS011;1730;41.932;25.548;2023-08-01T10:40:40;5.53;;;5.10;;
3433;SDS011;1730;41.932;25.548;2023-08-01T10:46:03;6.40;;;5.13;;
3433;SDS011;1730;41.932;25.548;2023-08-01T10:48:29;4.90;;;4.50;;
3433;SDS011;1730;41.932;25.548;2023-08-01T10:50:55;5.23;;;4.93;;
3433;SDS011;1730;41.932;25.548;2023-08-01T10:53:23;5.40;;;5.00;;
3433;SDS011;1730;41.932;25.548;2023-08-01T10:56:20;5.67;;;5.37;;
3433;SDS011;1730;41.932;25.548;2023-08-01T10:58:52;5.87;;;5.57;;
3433;SDS011;1730;41.932;25.548;2023-08-01T11:01:41;5.50;;;5.20;;
3433;SDS011;1730;41.932;25.548;2023-08-01T11:04:16;6.03;;;5.63;;
3433;SDS011;1730;41.932;25.548;2023-08-01T11:06:43;5.90;;;5.60;;
3433;SDS011;1730;41.932;25.548;2023-08-01T11:16:55;5.30;;;4.90;;
3433;SDS011;1730;41.932;25.548;2023-08-01T11:19:22;5.20;;;4.90;;
3433;SDS011;1730;41.932;25.548;2023-08-01T11:24:36;5.60;;;5.20;;
3433;SDS011;1730;41.932;25.548;2023-08-01T11:27:01;5.40;;;4.93;;
3433;SDS011;1730;41.932;25.548;2023-08-01T11:29:27;5.80;;;5.50;;
3433;SDS011;1730;41.932;25.548;2023-08-01T11:31:56;7.70;;;5.80;;
3433;SDS011;1730;41.932;25.548;2023-08-01T11:34:23;6.13;;;5.73;;
3433;SDS011;1730;41.932;25.548;2023-08-01T11:36:49;6.03;;;5.63;;
3433;SDS011;1730;41.932;25.548;2023-08-01T11:39:16;5.80;;;5.60;;
3433;SDS011;1730;41.932;25.548;2023-08-01T11:41:42;5.63;;;5.13;;
3433;SDS011;1730;41.932;25.548;2023-08-01T11:44:10;6.23;;;5.50;;
3433;SDS011;1730;41.932;25.548;2023-08-01T11:46:37;7.80;;;5.73;;
3433;SDS011;1730;41.932;25.548;2023-08-01T11:49:04;6.20;;;5.90;;
3433;SDS011;1730;41.932;25.548;2023-08-01T11:51:37;6.57;;;6.13;;
3433;SDS011;1730;41.932;25.548;2023-08-01T11:54:04;7.63;;;7.17;;
3433;SDS011;1730;41.932;25.548;2023-08-01T11:56:30;6.97;;;6.07;;
3433;SDS011;1730;41.932;25.548;2023-08-01T11:58:56;5.47;;;5.17;;
3433;SDS011;1730;41.932;25.548;2023-08-01T12:01:22;6.10;;;5.63;;
3433;SDS011;1730;41.932;25.548;2023-08-01T12:03:52;7.63;;;6.00;;
3433;SDS011;1730;41.932;25.548;2023-08-01T12:06:19;6.33;;;5.83;;
3433;SDS011;1730;41.932;25.548;2023-08-01T12:08:47;6.90;;;6.50;;
3433;SDS011;1730;41.932;25.548;2023-08-01T12:13:44;6.63;;;6.00;;
3433;SDS011;1730;41.932;25.548;2023-08-01T12:16:10;6.77;;;6.17;;
3433;SDS011;1730;41.932;25.548;2023-08-01T12:18:38;6.93;;;6.27;;
3433;SDS011;1730;41.932;25.548;2023-08-01T12:21:04;5.83;;;5.53;;
3433;SDS011;1730;41.932;25.548;2023-08-01T12:23:31;6.00;;;5.70;;
3433;SDS011;1730;41.932;25.548;2023-08-01T12:25:56;6.37;;;5.87;;
3433;SDS011;1730;41.932;25.548;2023-08-01T12:28:25;6.90;;;6.50;;
3433;SDS011;1730;41.932;25.548;2023-08-01T12:30:50;5.80;;;5.43;;
3433;SDS011;1730;41.932;25.548;2023-08-01T12:33:16;6.10;;;5.60;;
3433;SDS011;1730;41.932;25.548;2023-08-01T12:35:42;6.63;;;6.27;;
3433;SDS011;1730;41.932;25.548;2023-08-01T12:38:08;8.20;;;6.20;;
3433;SDS011;1730;41.932;25.548;2023-08-01T12:40:34;6.83;;;6.43;;
3433;SDS011;1730;41.932;25.548;2023-08-01T12:43:00;6.70;;;6.40;;
3433;SDS011;1730;41.932;25.548;2023-08-01T12:45:27;6.63;;;6.23;;
3433;SDS011;1730;41.932;25.548;2023-08-01T12:47:52;6.50;;;6.10;;
3433;SDS011;1730;41.932;25.548;2023-08-01T12:50:18;6.53;;;6.13;;
3433;SDS011;1730;41.932;25.548;2023-08-01T12:52:45;6.60;;;6.20;;
3433;SDS011;1730;41.932;25.548;2023-08-01T12:55:11;6.43;;;6.03;;
3433;SDS011;1730;41.932;25.548;2023-08-01T12:57:37;7.00;;;6.40;;
3433;SDS011;1730;41.932;25.548;2023-08-01T13:00:03;7.53;;;7.13;;
3433;SDS011;1730;41.932;25.548;2023-08-01T13:02:32;6.50;;;6.10;;
3433;SDS011;1730;41.932;25.548;2023-08-01T13:05:01;7.37;;;6.93;;
3433;SDS011;1730;41.932;25.548;2023-08-01T13:07:26;6.97;;;6.67;;
3433;SDS011;1730;41.932;25.548;2023-08-01T13:09:52;6.30;;;6.03;;
3433;SDS011;1730;41.932;25.548;2023-08-01T13:12:19;7.27;;;6.77;;
3433;SDS011;1730;41.932;25.548;2023-08-01T13:14:45;7.40;;;7.03;;
3433;SDS011;1730;41.932;25.548;2023-08-01T13:17:10;7.73;;;7.13;;
3433;SDS011;1730;41.932;25.548;2023-08-01T13:19:35;7.00;;;6.60;;
3433;SDS011;1730;41.932;25.548;2023-08-01T13:22:03;6.90;;;6.50;;
3433;SDS011;1730;41.932;25.548;2023-08-01T13:24:29;7.80;;;7.30;;
3433;SDS011;1730;41.932;25.548;2023-08-01T13:26:54;8.33;;;7.77;;
3433;SDS011;1730;41.932;25.548;2023-08-01T13:34:40;7.53;;;7.03;;
3433;SDS011;1730;41.932;25.548;2023-08-01T13:37:06;6.73;;;6.43;;
3433;SDS011;1730;41.932;25.548;2023-08-01T13:39:31;6.83;;;6.53;;
3433;SDS011;1730;41.932;25.548;2023-08-01T13:42:00;7.93;;;7.20;;
3433;SDS011;1730;41.932;25.548;2023-08-01T13:44:25;7.27;;;6.87;;
3433;SDS011;1730;41.932;25.548;2023-08-01T13:46:51;7.23;;;6.83;;
3433;SDS011;1730;41.932;25.548;2023-08-01T13:49:18;7.80;;;7.17;;
3433;SDS011;1730;41.932;25.548;2023-08-01T13:51:44;7.60;;;7.20;;
3433;SDS011;1730;41.932;25.548;2023-08-01T13:54:10;7.80;;;7.40;;
3433;SDS011;1730;41.932;25.548;2023-08-01T13:56:37;8.87;;;8.37;;
3433;SDS011;1730;41.932;25.548;2023-08-01T13:59:03;7.60;;;7.20;;
3433;SDS011;1730;41.932;25.548;2023-08-01T14:01:28;8.10;;;7.70;;
3433;SDS011;1730;41.932;25.548;2023-08-01T14:03:58;7.60;;;7.10;;
3433;SDS011;1730;41.932;25.548;2023-08-01T14:06:24;7.80;;;7.30;;
3433;SDS011;1730;41.932;25.548;2023-08-01T14:08:49;8.33;;;7.73;;
3433;SDS011;1730;41.932;25.548;2023-08-01T14:11:16;7.63;;;7.33;;
3433;SDS011;1730;41.932;25.548;2023-08-01T14:13:42;8.30;;;7.90;;
3433;SDS011;1730;41.932;25.548;2023-08-01T14:16:10;8.23;;;7.53;;
3433;SDS011;1730;41.932;25.548;2023-08-01T14:18:39;9.00;;;8.37;;
3433;SDS011;1730;41.932;25.548;2023-08-01T14:26:29;9.13;;;8.63;;
3433;SDS011;1730;41.932;25.548;2023-08-01T14:28:54;9.57;;;8.97;;
3433;SDS011;1730;41.932;25.548;2023-08-01T14:31:19;9.47;;;8.80;;
3433;SDS011;1730;41.932;25.548;2023-08-01T14:33:45;9.60;;;9.03;;
3433;SDS011;1730;41.932;25.548;2023-08-01T14:36:13;8.70;;;8.20;;
3433;SDS011;1730;41.932;25.548;2023-08-01T14:38:39;8.77;;;8.30;;
3433;SDS011;1730;41.932;25.548;2023-08-01T14:41:04;8.20;;;7.70;;
3433;SDS011;1730;41.932;25.548;2023-08-01T14:46:05;8.77;;;8.07;;
3433;SDS011;1730;41.932;25.548;2023-08-01T14:48:30;8.33;;;7.80;;
3433;SDS011;1730;41.932;25.548;2023-08-01T14:50:56;8.30;;;7.90;;
3433;SDS011;1730;41.932;25.548;2023-08-01T15:01:15;10.40;;;9.50;;
3433;SDS011;1730;41.932;25.548;2023-08-01T15:03:41;7.87;;;7.37;;
3433;SDS011;1730;41.932;25.548;2023-08-01T15:06:08;8.90;;;8.40;;
3433;SDS011;1730;41.932;25.548;2023-08-01T15:16:33;8.20;;;7.80;;
3433;SDS011;1730;41.932;25.548;2023-08-01T15:18:59;7.73;;;7.23;;
3433;SDS011;1730;41.932;25.548;2023-08-01T15:21:25;8.60;;;8.10;;
3433;SDS011;1730;41.932;25.548;2023-08-01T15:26:20;10.10;;;9.30;;
3433;SDS011;1730;41.932;25.548;2023-08-01T15:36:46;9.27;;;8.77;;
3433;SDS011;1730;41.932;25.548;2023-08-01T15:39:15;8.90;;;8.50;;
3433;SDS011;1730;41.932;25.548;2023-08-01T15:49:22;9.70;;;9.10;;
3433;SDS011;1730;41.932;25.548;2023-08-01T15:54:24;8.37;;;7.90;;
3433;SDS011;1730;41.932;25.548;2023-08-01T15:56:49;10.20;;;9.50;;